Algarrobo Verde, Argentina
Current Conditions -  °F | °C
As of 5:00 AM on Friday 31 Oct 2014 (Local Time) from SAME Reporting Station
Clear Clear  
Wind Chill: 61°   Ceiling: Unl
Heat Index: 61°   Visibility: 6mi
Dew Point: 21°   Wind: 14mph
Humidity: 22%   Direction: 160°SSE
Pressure: 30"   Gusts: 25mph
Location:  31.76°S, 68.31°W
Report Text: SAME 310800Z 16012G22KT 9000 NSC 16/M06 Q1016
Loading
Personal Weather Stations






























Interactive Weather Map New forecast layout! Learn more

10-Day Weather Forecast

Advertisements
Track Severe Weather on mobile